sensor_id;sensor_type;location;lat;lon;timestamp;P1;P2;P0
27143;PMS1003;14672;50.250;8.312;2023-04-06T00:02:08;16.67;16.00;8.00
27143;PMS1003;14672;50.250;8.312;2023-04-06T00:04:34;16.00;16.00;6.00
27143;PMS1003;14672;50.250;8.312;2023-04-06T00:06:59;16.00;15.33;8.00
27143;PMS1003;14672;50.250;8.312;2023-04-06T00:09:25;23.50;19.00;6.50
27143;PMS1003;14672;50.250;8.312;2023-04-06T00:11:51;16.00;14.00;6.00
27143;PMS1003;14672;50.250;8.312;2023-04-06T00:14:17;20.00;18.67;8.00
27143;PMS1003;14672;50.250;8.312;2023-04-06T00:16:43;18.00;15.33;6.67
27143;PMS1003;14672;50.250;8.312;2023-04-06T00:19:09;16.50;14.00;7.00
27143;PMS1003;14672;50.250;8.312;2023-04-06T00:21:35;16.67;15.33;6.00
27143;PMS1003;14672;50.250;8.312;2023-04-06T00:24:01;16.67;16.67;8.00
27143;PMS1003;14672;50.250;8.312;2023-04-06T00:26:28;24.50;19.00;7.50
27143;PMS1003;14672;50.250;8.312;2023-04-06T00:28:54;22.00;19.00;9.50
27143;PMS1003;14672;50.250;8.312;2023-04-06T00:31:20;16.00;14.00;6.00
27143;PMS1003;14672;50.250;8.312;2023-04-06T00:33:47;18.67;18.00;6.67
27143;PMS1003;14672;50.250;8.312;2023-04-06T00:36:13;15.00;13.50;6.00
27143;PMS1003;14672;50.250;8.312;2023-04-06T00:38:39;20.67;18.00;6.00
27143;PMS1003;14672;50.250;8.312;2023-04-06T00:41:05;18.00;17.33;6.00
27143;PMS1003;14672;50.250;8.312;2023-04-06T00:43:31;22.00;18.00;6.67
27143;PMS1003;14672;50.250;8.312;2023-04-06T00:45:57;15.50;15.50;6.00
27143;PMS1003;14672;50.250;8.312;2023-04-06T00:48:23;19.33;16.67;8.00
27143;PMS1003;14672;50.250;8.312;2023-04-06T00:50:49;26.00;21.33;8.00
27143;PMS1003;14672;50.250;8.312;2023-04-06T00:53:15;19.50;19.50;7.50
27143;PMS1003;14672;50.250;8.312;2023-04-06T00:55:41;15.00;15.00;6.00
27143;PMS1003;14672;50.250;8.312;2023-04-06T00:58:07;16.67;16.67;6.00
27143;PMS1003;14672;50.250;8.312;2023-04-06T01:00:32;17.33;16.67;6.00
27143;PMS1003;14672;50.250;8.312;2023-04-06T01:02:58;16.00;16.00;7.33
27143;PMS1003;14672;50.250;8.312;2023-04-06T01:05:24;15.00;14.00;6.00
27143;PMS1003;14672;50.250;8.312;2023-04-06T01:07:50;18.00;16.67;4.67
27143;PMS1003;14672;50.250;8.312;2023-04-06T01:10:26;16.00;16.00;6.67
27143;PMS1003;14672;50.250;8.312;2023-04-06T01:12:53;22.00;19.00;6.00
27143;PMS1003;14672;50.250;8.312;2023-04-06T01:15:19;19.33;17.33;7.33
27143;PMS1003;14672;50.250;8.312;2023-04-06T01:17:46;19.00;16.00;6.00
27143;PMS1003;14672;50.250;8.312;2023-04-06T01:20:12;19.33;16.00;5.33
27143;PMS1003;14672;50.250;8.312;2023-04-06T01:22:38;22.00;20.00;8.40
27143;PMS1003;14672;50.250;8.312;2023-04-06T01:25:04;24.00;21.33;8.00
27143;PMS1003;14672;50.250;8.312;2023-04-06T01:27:31;16.00;15.50;9.00
27143;PMS1003;14672;50.250;8.312;2023-04-06T01:29:57;13.50;13.50;6.00
27143;PMS1003;14672;50.250;8.312;2023-04-06T01:32:23;12.67;12.67;4.00
27143;PMS1003;14672;50.250;8.312;2023-04-06T01:34:49;20.00;19.50;6.00
27143;PMS1003;14672;50.250;8.312;2023-04-06T01:37:15;15.33;15.33;7.33
27143;PMS1003;14672;50.250;8.312;2023-04-06T01:39:41;18.00;16.67;8.00
27143;PMS1003;14672;50.250;8.312;2023-04-06T01:42:08;15.50;15.50;7.00
27143;PMS1003;14672;50.250;8.312;2023-04-06T01:44:34;18.00;18.00;10.00
27143;PMS1003;14672;50.250;8.312;2023-04-06T01:47:00;15.50;15.50;6.50
27143;PMS1003;14672;50.250;8.312;2023-04-06T01:49:25;19.33;16.67;6.00
27143;PMS1003;14672;50.250;8.312;2023-04-06T01:51:51;19.00;18.00;8.00
27143;PMS1003;14672;50.250;8.312;2023-04-06T01:54:19;21.50;18.50;8.00
27143;PMS1003;14672;50.250;8.312;2023-04-06T01:56:45;16.00;16.00;6.67
27143;PMS1003;14672;50.250;8.312;2023-04-06T01:59:12;22.00;19.50;9.00
27143;PMS1003;14672;50.250;8.312;2023-04-06T02:01:37;14.67;14.00;7.33
27143;PMS1003;14672;50.250;8.312;2023-04-06T02:04:03;17.33;16.00;6.67
27143;PMS1003;14672;50.250;8.312;2023-04-06T02:06:29;16.50;16.00;6.00
27143;PMS1003;14672;50.250;8.312;2023-04-06T02:08:55;16.50;16.50;6.00
27143;PMS1003;14672;50.250;8.312;2023-04-06T02:11:21;16.00;15.33;6.00
27143;PMS1003;14672;50.250;8.312;2023-04-06T02:13:47;15.33;15.33;6.00
27143;PMS1003;14672;50.250;8.312;2023-04-06T02:16:13;15.33;15.33;6.00
27143;PMS1003;14672;50.250;8.312;2023-04-06T02:18:39;16.50;16.00;6.00
27143;PMS1003;14672;50.250;8.312;2023-04-06T02:21:05;20.67;18.67;7.33
27143;PMS1003;14672;50.250;8.312;2023-04-06T02:23:31;17.33;15.33;6.00
27143;PMS1003;14672;50.250;8.312;2023-04-06T02:25:57;18.00;14.00;6.00
27143;PMS1003;14672;50.250;8.312;2023-04-06T02:28:22;18.00;16.67;8.00
27143;PMS1003;14672;50.250;8.312;2023-04-06T02:30:48;21.33;17.33;7.33
27143;PMS1003;14672;50.250;8.312;2023-04-06T02:33:14;21.50;20.00;7.00
27143;PMS1003;14672;50.250;8.312;2023-04-06T02:35:40;20.00;18.67;8.00
27143;PMS1003;14672;50.250;8.312;2023-04-06T02:38:06;20.00;19.33;7.33
27143;PMS1003;14672;50.250;8.312;2023-04-06T02:40:31;16.00;16.00;8.00
27143;PMS1003;14672;50.250;8.312;2023-04-06T02:42:57;14.67;12.67;6.00
27143;PMS1003;14672;50.250;8.312;2023-04-06T02:45:23;19.33;16.00;6.00
27143;PMS1003;14672;50.250;8.312;2023-04-06T02:47:49;20.80;18.80;7.20
27143;PMS1003;14672;50.250;8.312;2023-04-06T02:50:15;11.33;11.33;6.00
27143;PMS1003;14672;50.250;8.312;2023-04-06T02:52:41;14.67;14.67;8.00
27143;PMS1003;14672;50.250;8.312;2023-04-06T02:55:07;18.00;16.00;7.00
27143;PMS1003;14672;50.250;8.312;2023-04-06T02:57:33;19.50;18.00;8.50
27143;PMS1003;14672;50.250;8.312;2023-04-06T02:59:59;18.00;16.50;6.00
27143;PMS1003;14672;50.250;8.312;2023-04-06T03:02:25;14.00;14.00;6.00
27143;PMS1003;14672;50.250;8.312;2023-04-06T03:04:51;16.67;16.67;6.00
27143;PMS1003;14672;50.250;8.312;2023-04-06T03:07:16;18.67;16.67;6.00
27143;PMS1003;14672;50.250;8.312;2023-04-06T03:09:42;18.00;15.33;6.00
27143;PMS1003;14672;50.250;8.312;2023-04-06T03:12:08;16.00;16.00;7.33
27143;PMS1003;14672;50.250;8.312;2023-04-06T03:14:34;15.33;15.33;6.00
27143;PMS1003;14672;50.250;8.312;2023-04-06T03:17:00;24.00;20.00;8.67
27143;PMS1003;14672;50.250;8.312;2023-04-06T03:19:26;13.00;12.00;4.50
27143;PMS1003;14672;50.250;8.312;2023-04-06T03:21:52;12.67;12.67;6.00
27143;PMS1003;14672;50.250;8.312;2023-04-06T03:24:17;18.00;16.67;6.00
27143;PMS1003;14672;50.250;8.312;2023-04-06T03:26:43;18.00;18.00;6.00
27143;PMS1003;14672;50.250;8.312;2023-04-06T03:29:09;17.33;15.33;6.00
27143;PMS1003;14672;50.250;8.312;2023-04-06T03:31:35;18.00;15.33;6.00
27143;PMS1003;14672;50.250;8.312;2023-04-06T03:34:00;18.00;18.00;8.00
27143;PMS1003;14672;50.250;8.312;2023-04-06T03:36:26;24.00;22.00;8.00
27143;PMS1003;14672;50.250;8.312;2023-04-06T03:38:52;18.67;16.00;7.33
27143;PMS1003;14672;50.250;8.312;2023-04-06T03:41:18;17.50;16.00;6.50
27143;PMS1003;14672;50.250;8.312;2023-04-06T03:43:44;19.00;19.00;9.00
27143;PMS1003;14672;50.250;8.312;2023-04-06T03:46:10;23.20;20.00;10.00
27143;PMS1003;14672;50.250;8.312;2023-04-06T03:48:36;24.00;17.33;8.00
27143;PMS1003;14672;50.250;8.312;2023-04-06T03:51:02;18.00;18.00;8.00
27143;PMS1003;14672;50.250;8.312;2023-04-06T03:53:28;20.00;18.00;6.67
27143;PMS1003;14672;50.250;8.312;2023-04-06T03:55:54;19.33;18.00;8.00
27143;PMS1003;14672;50.250;8.312;2023-04-06T03:58:20;21.33;20.00;8.00
27143;PMS1003;14672;50.250;8.312;2023-04-06T04:00:46;16.00;14.00;6.00
27143;PMS1003;14672;50.250;8.312;2023-04-06T04:03:12;24.67;20.67;8.00
27143;PMS1003;14672;50.250;8.312;2023-04-06T04:05:37;18.67;17.33;8.00
27143;PMS1003;14672;50.250;8.312;2023-04-06T04:08:03;20.00;17.33;6.67
27143;PMS1003;14672;50.250;8.312;2023-04-06T04:10:29;21.33;18.00;6.00
27143;PMS1003;14672;50.250;8.312;2023-04-06T04:12:55;18.00;17.33;6.67
27143;PMS1003;14672;50.250;8.312;2023-04-06T04:15:20;23.50;22.00;9.50
27143;PMS1003;14672;50.250;8.312;2023-04-06T04:17:46;16.00;16.00;8.00
27143;PMS1003;14672;50.250;8.312;2023-04-06T04:20:14;22.00;20.80;9.20
27143;PMS1003;14672;50.250;8.312;2023-04-06T04:22:41;20.50;18.00;8.00
27143;PMS1003;14672;50.250;8.312;2023-04-06T04:25:07;22.00;19.00;8.00
27143;PMS1003;14672;50.250;8.312;2023-04-06T04:27:34;18.00;18.00;7.50
27143;PMS1003;14672;50.250;8.312;2023-04-06T04:30:00;18.50;16.50;8.50
27143;PMS1003;14672;50.250;8.312;2023-04-06T04:32:26;20.67;20.00;8.67
27143;PMS1003;14672;50.250;8.312;2023-04-06T04:34:52;20.00;19.00;8.00
27143;PMS1003;14672;50.250;8.312;2023-04-06T04:37:19;22.00;20.00;11.20
27143;PMS1003;14672;50.250;8.312;2023-04-06T04:39:45;22.50;21.00;10.00
27143;PMS1003;14672;50.250;8.312;2023-04-06T04:42:11;28.80;25.20;10.00
27143;PMS1003;14672;50.250;8.312;2023-04-06T04:44:39;29.20;28.80;15.60
27143;PMS1003;14672;50.250;8.312;2023-04-06T04:47:05;30.00;27.50;13.00
27143;PMS1003;14672;50.250;8.312;2023-04-06T04:49:30;29.00;24.50;12.00
27143;PMS1003;14672;50.250;8.312;2023-04-06T04:51:56;28.50;22.50;9.00
27143;PMS1003;14672;50.250;8.312;2023-04-06T04:54:22;26.50;20.50;10.00
27143;PMS1003;14672;50.250;8.312;2023-04-06T04:56:48;29.00;22.50;11.00
27143;PMS1003;14672;50.250;8.312;2023-04-06T04:59:15;31.60;24.40;11.20
27143;PMS1003;14672;50.250;8.312;2023-04-06T05:01:41;19.00;17.00;7.00
27143;PMS1003;14672;50.250;8.312;2023-04-06T05:04:07;32.50;27.00;12.00
27143;PMS1003;14672;50.250;8.312;2023-04-06T05:06:32;30.50;25.50;11.00
27143;PMS1003;14672;50.250;8.312;2023-04-06T05:08:58;25.50;24.00;11.00
27143;PMS1003;14672;50.250;8.312;2023-04-06T05:11:24;24.00;22.00;6.67
27143;PMS1003;14672;50.250;8.312;2023-04-06T05:13:51;28.00;26.00;12.50
27143;PMS1003;14672;50.250;8.312;2023-04-06T05:16:17;24.00;22.00;11.33
27143;PMS1003;14672;50.250;8.312;2023-04-06T05:18:43;27.00;23.50;10.00
27143;PMS1003;14672;50.250;8.312;2023-04-06T05:21:09;20.67;19.33;10.00
27143;PMS1003;14672;50.250;8.312;2023-04-06T05:23:36;29.50;26.00;10.00
27143;PMS1003;14672;50.250;8.312;2023-04-06T05:26:02;33.50;24.50;10.00
27143;PMS1003;14672;50.250;8.312;2023-04-06T05:28:28;23.50;23.00;10.50
27143;PMS1003;14672;50.250;8.312;2023-04-06T05:30:54;24.80;23.60;12.00
27143;PMS1003;14672;50.250;8.312;2023-04-06T05:33:21;24.00;22.40;12.00
27143;PMS1003;14672;50.250;8.312;2023-04-06T05:35:48;26.40;23.60;9.20
27143;PMS1003;14672;50.250;8.312;2023-04-06T05:38:14;24.00;21.50;9.50
27143;PMS1003;14672;50.250;8.312;2023-04-06T05:40:40;28.67;26.00;10.00
27143;PMS1003;14672;50.250;8.312;2023-04-06T05:43:07;30.80;25.20;10.80
27143;PMS1003;14672;50.250;8.312;2023-04-06T05:45:33;28.80;24.40;12.00
27143;PMS1003;14672;50.250;8.312;2023-04-06T05:48:00;28.00;23.50;11.00
27143;PMS1003;14672;50.250;8.312;2023-04-06T05:50:27;26.00;24.80;10.00
27143;PMS1003;14672;50.250;8.312;2023-04-06T05:52:53;32.00;25.60;12.40
27143;PMS1003;14672;50.250;8.312;2023-04-06T05:55:19;24.67;21.33;8.67
27143;PMS1003;14672;50.250;8.312;2023-04-06T05:57:47;30.00;27.33;14.00
27143;PMS1003;14672;50.250;8.312;2023-04-06T06:00:14;32.40;29.20;16.40
27143;PMS1003;14672;50.250;8.312;2023-04-06T06:02:41;33.50;30.00;13.00
27143;PMS1003;14672;50.250;8.312;2023-04-06T06:05:07;32.80;29.20;13.60
27143;PMS1003;14672;50.250;8.312;2023-04-06T06:07:35;39.60;34.00;12.00
27143;PMS1003;14672;50.250;8.312;2023-04-06T06:10:01;29.60;26.80;13.60
27143;PMS1003;14672;50.250;8.312;2023-04-06T06:12:27;35.20;30.80;14.00
27143;PMS1003;14672;50.250;8.312;2023-04-06T06:14:53;32.00;27.33;12.00
27143;PMS1003;14672;50.250;8.312;2023-04-06T06:17:20;36.40;34.00;17.20
27143;PMS1003;14672;50.250;8.312;2023-04-06T06:19:47;24.80;24.80;13.20
27143;PMS1003;14672;50.250;8.312;2023-04-06T06:22:13;30.50;29.00;14.00
27143;PMS1003;14672;50.250;8.312;2023-04-06T06:24:39;34.50;31.00;15.50
27143;PMS1003;14672;50.250;8.312;2023-04-06T06:27:05;37.60;35.20;18.00
27143;PMS1003;14672;50.250;8.312;2023-04-06T06:29:33;29.00;28.00;14.00
27143;PMS1003;14672;50.250;8.312;2023-04-06T06:31:59;39.60;30.00;14.00
27143;PMS1003;14672;50.250;8.312;2023-04-06T06:34:25;31.50;28.00;15.00
27143;PMS1003;14672;50.250;8.312;2023-04-06T06:36:51;39.60;31.60;14.00
27143;PMS1003;14672;50.250;8.312;2023-04-06T06:39:19;34.80;29.60;14.40
27143;PMS1003;14672;50.250;8.312;2023-04-06T06:41:46;36.40;32.00;13.20
27143;PMS1003;14672;50.250;8.312;2023-04-06T06:44:12;35.60;29.20;14.00
27143;PMS1003;14672;50.250;8.312;2023-04-06T06:46:38;37.20;30.80;16.00
27143;PMS1003;14672;50.250;8.312;2023-04-06T06:49:05;34.00;32.00;16.00
27143;PMS1003;14672;50.250;8.312;2023-04-06T06:51:31;33.50;28.50;16.50
27143;PMS1003;14672;50.250;8.312;2023-04-06T06:53:58;43.50;35.50;17.50
27143;PMS1003;14672;50.250;8.312;2023-04-06T06:56:24;39.60;30.80;16.80
27143;PMS1003;14672;50.250;8.312;2023-04-06T06:58:51;34.50;27.00;14.50
27143;PMS1003;14672;50.250;8.312;2023-04-06T07:01:17;32.00;32.00;18.00
27143;PMS1003;14672;50.250;8.312;2023-04-06T07:03:45;37.20;34.00;19.20
27143;PMS1003;14672;50.250;8.312;2023-04-06T07:06:12;39.20;37.00;17.80
27143;PMS1003;14672;50.250;8.312;2023-04-06T07:08:38;33.80;30.20;17.60
27143;PMS1003;14672;50.250;8.312;2023-04-06T07:11:04;30.00;30.00;16.75
27143;PMS1003;14672;50.250;8.312;2023-04-06T07:13:30;34.75;31.25;14.00
27143;PMS1003;14672;50.250;8.312;2023-04-06T07:15:56;31.25;30.00;14.25
27143;PMS1003;14672;50.250;8.312;2023-04-06T07:18:22;30.67;28.67;14.67
27143;PMS1003;14672;50.250;8.312;2023-04-06T07:20:49;34.25;30.75;15.25
27143;PMS1003;14672;50.250;8.312;2023-04-06T07:23:15;34.25;31.50;13.00
27143;PMS1003;14672;50.250;8.312;2023-04-06T07:25:42;34.75;34.75;14.75
27143;PMS1003;14672;50.250;8.312;2023-04-06T07:28:09;31.25;29.75;15.75
27143;PMS1003;14672;50.250;8.312;2023-04-06T07:30:36;39.75;36.75;16.75
27143;PMS1003;14672;50.250;8.312;2023-04-06T07:33:03;33.25;29.25;15.75
27143;PMS1003;14672;50.250;8.312;2023-04-06T07:35:31;32.25;27.00;14.00
27143;PMS1003;14672;50.250;8.312;2023-04-06T07:37:57;29.25;28.00;13.75
27143;PMS1003;14672;50.250;8.312;2023-04-06T07:40:23;24.67;24.67;12.00
27143;PMS1003;14672;50.250;8.312;2023-04-06T07:42:51;26.25;26.25;13.75
27143;PMS1003;14672;50.250;8.312;2023-04-06T07:45:17;25.75;25.75;12.25
27143;PMS1003;14672;50.250;8.312;2023-04-06T07:47:44;31.50;28.25;11.75
27143;PMS1003;14672;50.250;8.312;2023-04-06T07:50:11;28.75;26.75;11.25
27143;PMS1003;14672;50.250;8.312;2023-04-06T07:52:38;39.75;32.25;16.75
27143;PMS1003;14672;50.250;8.312;2023-04-06T07:55:04;31.50;30.25;15.00
27143;PMS1003;14672;50.250;8.312;2023-04-06T07:57:31;36.25;28.25;13.75
27143;PMS1003;14672;50.250;8.312;2023-04-06T07:59:56;28.00;26.00;15.00
27143;PMS1003;14672;50.250;8.312;2023-04-06T08:02:22;34.67;30.33;14.00
27143;PMS1003;14672;50.250;8.312;2023-04-06T08:04:49;34.50;30.50;15.75
27143;PMS1003;14672;50.250;8.312;2023-04-06T08:07:15;30.00;26.50;12.25
27143;PMS1003;14672;50.250;8.312;2023-04-06T08:09:42;27.00;27.00;14.75
27143;PMS1003;14672;50.250;8.312;2023-04-06T08:12:09;29.50;25.50;12.25
27143;PMS1003;14672;50.250;8.312;2023-04-06T08:14:35;34.33;29.33;13.33
27143;PMS1003;14672;50.250;8.312;2023-04-06T08:17:02;30.25;28.75;14.50
27143;PMS1003;14672;50.250;8.312;2023-04-06T08:19:28;31.50;26.75;14.75
27143;PMS1003;14672;50.250;8.312;2023-04-06T08:21:55;30.25;27.75;13.50
27143;PMS1003;14672;50.250;8.312;2023-04-06T08:24:21;28.25;28.25;15.25
27143;PMS1003;14672;50.250;8.312;2023-04-06T08:26:48;28.50;27.00;14.50
27143;PMS1003;14672;50.250;8.312;2023-04-06T08:29:16;34.00;28.00;14.00
27143;PMS1003;14672;50.250;8.312;2023-04-06T08:31:43;30.00;27.75;12.25
27143;PMS1003;14672;50.250;8.312;2023-04-06T08:34:09;31.50;27.00;12.00
27143;PMS1003;14672;50.250;8.312;2023-04-06T08:36:36;30.75;28.50;15.25
27143;PMS1003;14672;50.250;8.312;2023-04-06T08:39:02;33.25;28.50;12.50
27143;PMS1003;14672;50.250;8.312;2023-04-06T08:41:28;28.00;26.00;12.00
27143;PMS1003;14672;50.250;8.312;2023-04-06T08:43:56;31.75;26.25;11.00
27143;PMS1003;14672;50.250;8.312;2023-04-06T08:46:26;29.75;27.25;13.50
27143;PMS1003;14672;50.250;8.312;2023-04-06T08:48:56;31.00;28.50;14.00
27143;PMS1003;14672;50.250;8.312;2023-04-06T08:51:29;31.50;30.50;12.75
27143;PMS1003;14672;50.250;8.312;2023-04-06T08:53:56;30.25;28.25;13.25
27143;PMS1003;14672;50.250;8.312;2023-04-06T08:56:24;31.00;29.00;13.25
27143;PMS1003;14672;50.250;8.312;2023-04-06T08:58:53;39.25;30.50;14.00
27143;PMS1003;14672;50.250;8.312;2023-04-06T09:01:21;30.25;26.50;12.75
27143;PMS1003;14672;50.250;8.312;2023-04-06T09:03:54;28.00;27.50;13.50
27143;PMS1003;14672;50.250;8.312;2023-04-06T09:06:30;24.25;23.75;12.75
27143;PMS1003;14672;50.250;8.312;2023-04-06T09:08:56;22.00;21.75;12.50
27143;PMS1003;14672;50.250;8.312;2023-04-06T09:11:23;31.50;27.25;13.25
27143;PMS1003;14672;50.250;8.312;2023-04-06T09:13:51;34.50;28.00;13.00
27143;PMS1003;14672;50.250;8.312;2023-04-06T09:16:22;27.00;24.25;10.75
27143;PMS1003;14672;50.250;8.312;2023-04-06T09:18:51;30.00;25.75;11.75
27143;PMS1003;14672;50.250;8.312;2023-04-06T09:21:17;29.50;28.50;12.00
27143;PMS1003;14672;50.250;8.312;2023-04-06T09:23:44;25.75;24.75;13.50
27143;PMS1003;14672;50.250;8.312;2023-04-06T09:26:14;27.50;25.50;14.50
27143;PMS1003;14672;50.250;8.312;2023-04-06T09:28:46;31.75;29.00;12.75
27143;PMS1003;14672;50.250;8.312;2023-04-06T09:31:36;28.75;24.50;10.75
27143;PMS1003;14672;50.250;8.312;2023-04-06T09:34:02;29.00;28.50;14.00
27143;PMS1003;14672;50.250;8.312;2023-04-06T09:36:32;29.75;26.00;12.25
27143;PMS1003;14672;50.250;8.312;2023-04-06T09:39:03;28.50;24.25;12.00
27143;PMS1003;14672;50.250;8.312;2023-04-06T09:41:30;28.25;25.50;12.25
27143;PMS1003;14672;50.250;8.312;2023-04-06T09:46:32;35.75;26.75;11.75
27143;PMS1003;14672;50.250;8.312;2023-04-06T09:49:04;31.25;25.50;13.00
27143;PMS1003;14672;50.250;8.312;2023-04-06T09:54:17;28.00;27.50;12.50
27143;PMS1003;14672;50.250;8.312;2023-04-06T09:56:47;39.75;34.50;15.25
27143;PMS1003;14672;50.250;8.312;2023-04-06T10:02:32;26.50;26.50;12.00
27143;PMS1003;14672;50.250;8.312;2023-04-06T10:05:36;26.75;25.25;11.00
27143;PMS1003;14672;50.250;8.312;2023-04-06T10:08:27;40.50;30.50;12.00
27143;PMS1003;14672;50.250;8.312;2023-04-06T10:10:54;28.25;24.50;13.75
27143;PMS1003;14672;50.250;8.312;2023-04-06T10:13:20;35.75;31.75;15.00
27143;PMS1003;14672;50.250;8.312;2023-04-06T10:15:49;29.75;26.75;12.00
27143;PMS1003;14672;50.250;8.312;2023-04-06T10:18:17;33.50;30.25;12.50
27143;PMS1003;14672;50.250;8.312;2023-04-06T10:20:49;31.50;29.00;13.00
27143;PMS1003;14672;50.250;8.312;2023-04-06T10:23:47;26.50;25.25;14.00
27143;PMS1003;14672;50.250;8.312;2023-04-06T10:26:19;33.50;31.75;16.00
27143;PMS1003;14672;50.250;8.312;2023-04-06T10:28:46;30.50;27.00;13.75
27143;PMS1003;14672;50.250;8.312;2023-04-06T10:31:14;31.25;27.75;14.00
27143;PMS1003;14672;50.250;8.312;2023-04-06T10:33:59;28.25;26.00;13.50
27143;PMS1003;14672;50.250;8.312;2023-04-06T10:36:27;28.25;27.00;12.50
27143;PMS1003;14672;50.250;8.312;2023-04-06T10:38:59;30.50;27.25;13.50
27143;PMS1003;14672;50.250;8.312;2023-04-06T10:41:34;27.25;24.00;11.50
27143;PMS1003;14672;50.250;8.312;2023-04-06T10:44:06;32.75;31.00;14.25
27143;PMS1003;14672;50.250;8.312;2023-04-06T10:46:32;32.33;28.67;13.33
27143;PMS1003;14672;50.250;8.312;2023-04-06T10:49:11;38.25;32.25;16.25
27143;PMS1003;14672;50.250;8.312;2023-04-06T10:51:37;35.00;32.25;14.25
27143;PMS1003;14672;50.250;8.312;2023-04-06T10:54:05;31.25;28.75;14.50
27143;PMS1003;14672;50.250;8.312;2023-04-06T10:56:32;30.75;27.00;16.25
27143;PMS1003;14672;50.250;8.312;2023-04-06T10:59:01;34.25;33.25;14.00
27143;PMS1003;14672;50.250;8.312;2023-04-06T11:01:27;30.00;26.50;13.00
27143;PMS1003;14672;50.250;8.312;2023-04-06T11:03:56;35.00;30.33;14.33
27143;PMS1003;14672;50.250;8.312;2023-04-06T11:06:26;30.25;28.75;14.00
27143;PMS1003;14672;50.250;8.312;2023-04-06T11:08:56;35.75;29.50;13.50
27143;PMS1003;14672;50.250;8.312;2023-04-06T11:11:23;26.50;26.00;14.50
27143;PMS1003;14672;50.250;8.312;2023-04-06T11:13:52;27.00;27.00;15.75
27143;PMS1003;14672;50.250;8.312;2023-04-06T11:18:51;31.25;27.75;14.50
27143;PMS1003;14672;50.250;8.312;2023-04-06T11:21:40;25.75;25.50;12.00
27143;PMS1003;14672;50.250;8.312;2023-04-06T11:24:09;28.50;25.25;11.25
27143;PMS1003;14672;50.250;8.312;2023-04-06T11:26:50;30.25;28.00;14.00
27143;PMS1003;14672;50.250;8.312;2023-04-06T11:31:50;25.00;25.00;11.25
27143;PMS1003;14672;50.250;8.312;2023-04-06T11:34:19;29.00;24.75;10.75
27143;PMS1003;14672;50.250;8.312;2023-04-06T11:36:48;29.00;27.25;12.25
27143;PMS1003;14672;50.250;8.312;2023-04-06T11:39:23;29.50;25.50;10.75
27143;PMS1003;14672;50.250;8.312;2023-04-06T11:41:51;32.25;30.00;14.00
27143;PMS1003;14672;50.250;8.312;2023-04-06T11:46:58;27.25;24.50;13.25
27143;PMS1003;14672;50.250;8.312;2023-04-06T11:49:27;27.75;26.25;15.00
27143;PMS1003;14672;50.250;8.312;2023-04-06T11:51:54;26.75;23.00;9.50
27143;PMS1003;14672;50.250;8.312;2023-04-06T11:54:37;25.00;25.00;12.00
27143;PMS1003;14672;50.250;8.312;2023-04-06T11:57:03;32.50;27.50;11.25
27143;PMS1003;14672;50.250;8.312;2023-04-06T11:59:31;28.75;28.50;14.00
27143;PMS1003;14672;50.250;8.312;2023-04-06T12:01:57;29.50;29.00;15.00
27143;PMS1003;14672;50.250;8.312;2023-04-06T12:04:23;39.50;30.75;14.25
27143;PMS1003;14672;50.250;8.312;2023-04-06T12:06:50;33.25;31.00;14.25
27143;PMS1003;14672;50.250;8.312;2023-04-06T12:09:16;29.00;26.25;14.50
27143;PMS1003;14672;50.250;8.312;2023-04-06T12:11:43;28.50;26.50;14.50
27143;PMS1003;14672;50.250;8.312;2023-04-06T12:14:10;30.00;26.00;14.25
27143;PMS1003;14672;50.250;8.312;2023-04-06T12:16:37;37.50;29.75;15.00
27143;PMS1003;14672;50.250;8.312;2023-04-06T12:19:03;29.00;26.75;14.75
27143;PMS1003;14672;50.250;8.312;2023-04-06T12:21:33;33.00;26.33;15.00
27143;PMS1003;14672;50.250;8.312;2023-04-06T12:24:02;29.25;28.50;12.00
27143;PMS1003;14672;50.250;8.312;2023-04-06T12:26:32;34.50;32.50;14.75
27143;PMS1003;14672;50.250;8.312;2023-04-06T12:28:58;31.25;28.50;13.75
27143;PMS1003;14672;50.250;8.312;2023-04-06T12:31:42;33.00;30.25;14.00
27143;PMS1003;14672;50.250;8.312;2023-04-06T12:34:10;31.50;30.25;17.50
27143;PMS1003;14672;50.250;8.312;2023-04-06T12:36:36;27.75;25.50;12.00
27143;PMS1003;14672;50.250;8.312;2023-04-06T12:39:03;34.00;30.25;16.50
27143;PMS1003;14672;50.250;8.312;2023-04-06T12:41:30;35.75;32.75;16.75
27143;PMS1003;14672;50.250;8.312;2023-04-06T12:43:56;29.67;28.33;14.00
27143;PMS1003;14672;50.250;8.312;2023-04-06T12:46:24;29.75;28.25;14.25
27143;PMS1003;14672;50.250;8.312;2023-04-06T12:48:51;32.33;27.67;14.67
27143;PMS1003;14672;50.250;8.312;2023-04-06T12:51:18;31.25;30.75;15.75
27143;PMS1003;14672;50.250;8.312;2023-04-06T12:53:45;34.75;29.75;15.00
27143;PMS1003;14672;50.250;8.312;2023-04-06T12:56:14;28.75;27.75;15.00
27143;PMS1003;14672;50.250;8.312;2023-04-06T12:58:42;28.50;26.75;12.50
27143;PMS1003;14672;50.250;8.312;2023-04-06T13:01:09;37.75;33.25;16.00
27143;PMS1003;14672;50.250;8.312;2023-04-06T13:03:38;38.75;33.75;17.25
27143;PMS1003;14672;50.250;8.312;2023-04-06T13:06:05;39.25;34.75;16.75
27143;PMS1003;14672;50.250;8.312;2023-04-06T13:08:31;29.50;26.50;15.50
27143;PMS1003;14672;50.250;8.312;2023-04-06T13:10:57;37.00;32.33;16.33
27143;PMS1003;14672;50.250;8.312;2023-04-06T13:13:23;33.33;30.67;15.00
27143;PMS1003;14672;50.250;8.312;2023-04-06T13:15:51;35.50;30.25;16.75
27143;PMS1003;14672;50.250;8.312;2023-04-06T13:18:24;33.75;30.75;15.50
27143;PMS1003;14672;50.250;8.312;2023-04-06T13:20:50;26.67;26.67;14.33
27143;PMS1003;14672;50.250;8.312;2023-04-06T13:23:16;36.33;34.67;18.33
27143;PMS1003;14672;50.250;8.312;2023-04-06T13:25:42;30.67;28.33;15.33
27143;PMS1003;14672;50.250;8.312;2023-04-06T13:28:08;40.67;34.67;15.00
27143;PMS1003;14672;50.250;8.312;2023-04-06T13:30:35;34.00;28.00;15.00
27143;PMS1003;14672;50.250;8.312;2023-04-06T13:33:01;31.33;28.33;15.00
27143;PMS1003;14672;50.250;8.312;2023-04-06T13:35:27;30.50;27.00;12.00
27143;PMS1003;14672;50.250;8.312;2023-04-06T13:37:53;31.33;29.00;15.00
27143;PMS1003;14672;50.250;8.312;2023-04-06T13:40:19;28.50;27.25;12.50
27143;PMS1003;14672;50.250;8.312;2023-04-06T13:42:46;30.25;28.25;15.75
27143;PMS1003;14672;50.250;8.312;2023-04-06T13:45:12;36.50;32.25;15.00
27143;PMS1003;14672;50.250;8.312;2023-04-06T13:47:38;28.25;27.00;14.50
27143;PMS1003;14672;50.250;8.312;2023-04-06T13:50:05;29.75;24.75;13.50
27143;PMS1003;14672;50.250;8.312;2023-04-06T13:52:32;26.50;24.75;13.75
27143;PMS1003;14672;50.250;8.312;2023-04-06T13:54:58;28.00;24.67;13.67
27143;PMS1003;14672;50.250;8.312;2023-04-06T13:57:28;26.00;25.50;12.25
27143;PMS1003;14672;50.250;8.312;2023-04-06T13:59:55;29.00;25.50;13.00
27143;PMS1003;14672;50.250;8.312;2023-04-06T14:02:22;32.25;27.75;14.25
27143;PMS1003;14672;50.250;8.312;2023-04-06T14:04:53;25.00;24.25;11.75
27143;PMS1003;14672;50.250;8.312;2023-04-06T14:07:20;28.25;27.25;13.75